sensor_id;sensor_type;location;lat;lon;timestamp;temperature;humidity
54642;DHT22;40536;53.194;5.728;2023-04-15T00:01:09;8.10;99.90
54642;DHT22;40536;53.194;5.728;2023-04-15T00:03:39;7.30;99.90
54642;DHT22;40536;53.194;5.728;2023-04-15T00:06:05;8.10;99.90
54642;DHT22;40536;53.194;5.728;2023-04-15T00:08:31;7.30;99.90
54642;DHT22;40536;53.194;5.728;2023-04-15T00:10:57;7.20;99.90
54642;DHT22;40536;53.194;5.728;2023-04-15T00:13:27;7.80;99.90
54642;DHT22;40536;53.194;5.728;2023-04-15T00:15:52;7.60;99.90
54642;DHT22;40536;53.194;5.728;2023-04-15T00:18:18;7.30;99.90
54642;DHT22;40536;53.194;5.728;2023-04-15T00:20:43;7.10;99.90
54642;DHT22;40536;53.194;5.728;2023-04-15T00:23:09;7.10;99.90
54642;DHT22;40536;53.194;5.728;2023-04-15T00:25:35;7.60;99.90
54642;DHT22;40536;53.194;5.728;2023-04-15T00:28:01;7.60;99.90
54642;DHT22;40536;53.194;5.728;2023-04-15T00:30:27;7.00;99.90
54642;DHT22;40536;53.194;5.728;2023-04-15T00:32:53;7.30;99.90
54642;DHT22;40536;53.194;5.728;2023-04-15T00:35:18;7.00;99.90
54642;DHT22;40536;53.194;5.728;2023-04-15T00:37:45;7.70;99.90
54642;DHT22;40536;53.194;5.728;2023-04-15T00:40:12;7.10;99.90
54642;DHT22;40536;53.194;5.728;2023-04-15T00:42:38;6.90;99.90
54642;DHT22;40536;53.194;5.728;2023-04-15T00:45:04;7.00;99.90
54642;DHT22;40536;53.194;5.728;2023-04-15T00:47:31;6.90;99.90
54642;DHT22;40536;53.194;5.728;2023-04-15T00:49:58;7.00;99.90
54642;DHT22;40536;53.194;5.728;2023-04-15T00:52:23;6.80;99.90
54642;DHT22;40536;53.194;5.728;2023-04-15T00:54:49;7.40;99.90
54642;DHT22;40536;53.194;5.728;2023-04-15T00:57:15;6.80;99.90
54642;DHT22;40536;53.194;5.728;2023-04-15T00:59:41;6.70;99.90
54642;DHT22;40536;53.194;5.728;2023-04-15T01:02:07;6.70;99.90
54642;DHT22;40536;53.194;5.728;2023-04-15T01:04:33;6.70;99.90
54642;DHT22;40536;53.194;5.728;2023-04-15T01:07:01;6.80;99.90
54642;DHT22;40536;53.194;5.728;2023-04-15T01:09:28;6.80;99.90
54642;DHT22;40536;53.194;5.728;2023-04-15T01:11:54;6.50;99.90
54642;DHT22;40536;53.194;5.728;2023-04-15T01:14:20;6.50;99.90
54642;DHT22;40536;53.194;5.728;2023-04-15T01:16:46;6.50;99.90
54642;DHT22;40536;53.194;5.728;2023-04-15T01:19:13;6.90;99.90
54642;DHT22;40536;53.194;5.728;2023-04-15T01:21:41;6.40;99.90
54642;DHT22;40536;53.194;5.728;2023-04-15T01:24:08;6.80;99.90
54642;DHT22;40536;53.194;5.728;2023-04-15T01:26:37;6.70;99.90
54642;DHT22;40536;53.194;5.728;2023-04-15T01:29:02;7.10;99.90
54642;DHT22;40536;53.194;5.728;2023-04-15T01:31:28;6.90;99.90
54642;DHT22;40536;53.194;5.728;2023-04-15T01:33:54;6.30;99.90
54642;DHT22;40536;53.194;5.728;2023-04-15T01:36:19;6.30;99.90
54642;DHT22;40536;53.194;5.728;2023-04-15T01:38:45;6.30;99.90
54642;DHT22;40536;53.194;5.728;2023-04-15T01:41:13;6.30;99.90
54642;DHT22;40536;53.194;5.728;2023-04-15T01:43:38;6.30;99.90
54642;DHT22;40536;53.194;5.728;2023-04-15T01:46:04;6.40;99.90
54642;DHT22;40536;53.194;5.728;2023-04-15T01:48:30;6.80;99.90
54642;DHT22;40536;53.194;5.728;2023-04-15T01:50:57;6.20;99.90
54642;DHT22;40536;53.194;5.728;2023-04-15T01:53:24;6.70;99.90
54642;DHT22;40536;53.194;5.728;2023-04-15T01:55:50;6.60;99.90
54642;DHT22;40536;53.194;5.728;2023-04-15T01:58:19;7.10;99.90
54642;DHT22;40536;53.194;5.728;2023-04-15T02:00:46;5.80;99.90
54642;DHT22;40536;53.194;5.728;2023-04-15T02:03:12;6.40;99.90
54642;DHT22;40536;53.194;5.728;2023-04-15T02:05:38;6.70;99.90
54642;DHT22;40536;53.194;5.728;2023-04-15T02:08:03;6.20;99.90
54642;DHT22;40536;53.194;5.728;2023-04-15T02:10:29;6.20;99.90
54642;DHT22;40536;53.194;5.728;2023-04-15T02:12:55;6.10;99.90
54642;DHT22;40536;53.194;5.728;2023-04-15T02:15:20;6.70;99.90
54642;DHT22;40536;53.194;5.728;2023-04-15T02:17:46;6.60;99.90
54642;DHT22;40536;53.194;5.728;2023-04-15T02:20:16;6.10;99.90
54642;DHT22;40536;53.194;5.728;2023-04-15T02:22:42;7.10;99.90
54642;DHT22;40536;53.194;5.728;2023-04-15T02:25:08;6.30;99.90
54642;DHT22;40536;53.194;5.728;2023-04-15T02:27:37;6.10;99.90
54642;DHT22;40536;53.194;5.728;2023-04-15T02:30:03;6.10;99.90
54642;DHT22;40536;53.194;5.728;2023-04-15T02:32:29;6.10;99.90
54642;DHT22;40536;53.194;5.728;2023-04-15T02:34:54;6.00;99.90
54642;DHT22;40536;53.194;5.728;2023-04-15T02:37:20;6.00;99.90
54642;DHT22;40536;53.194;5.728;2023-04-15T02:39:46;6.00;99.90
54642;DHT22;40536;53.194;5.728;2023-04-15T02:42:12;6.40;99.90
54642;DHT22;40536;53.194;5.728;2023-04-15T02:44:37;6.50;99.90
54642;DHT22;40536;53.194;5.728;2023-04-15T02:47:03;6.80;99.90
54642;DHT22;40536;53.194;5.728;2023-04-15T02:49:31;6.50;99.90
54642;DHT22;40536;53.194;5.728;2023-04-15T02:51:57;7.20;99.90
54642;DHT22;40536;53.194;5.728;2023-04-15T02:54:25;6.40;99.90
54642;DHT22;40536;53.194;5.728;2023-04-15T02:56:51;5.90;99.90
54642;DHT22;40536;53.194;5.728;2023-04-15T02:59:20;5.80;99.90
54642;DHT22;40536;53.194;5.728;2023-04-15T03:01:45;6.20;99.90
54642;DHT22;40536;53.194;5.728;2023-04-15T03:04:12;6.20;99.90
54642;DHT22;40536;53.194;5.728;2023-04-15T03:06:38;5.80;99.90
54642;DHT22;40536;53.194;5.728;2023-04-15T03:09:05;5.90;99.90
54642;DHT22;40536;53.194;5.728;2023-04-15T03:11:31;5.70;99.90
54642;DHT22;40536;53.194;5.728;2023-04-15T03:13:57;5.70;99.90
54642;DHT22;40536;53.194;5.728;2023-04-15T03:16:23;5.70;99.90
54642;DHT22;40536;53.194;5.728;2023-04-15T03:18:49;5.70;99.90
54642;DHT22;40536;53.194;5.728;2023-04-15T03:21:15;6.60;99.90
54642;DHT22;40536;53.194;5.728;2023-04-15T03:23:41;6.40;99.90
54642;DHT22;40536;53.194;5.728;2023-04-15T03:26:06;5.50;99.90
54642;DHT22;40536;53.194;5.728;2023-04-15T03:28:32;5.90;99.90
54642;DHT22;40536;53.194;5.728;2023-04-15T03:30:58;6.60;99.90
54642;DHT22;40536;53.194;5.728;2023-04-15T03:33:24;5.40;99.90
54642;DHT22;40536;53.194;5.728;2023-04-15T03:35:50;5.40;99.90
54642;DHT22;40536;53.194;5.728;2023-04-15T03:38:17;5.30;99.90
54642;DHT22;40536;53.194;5.728;2023-04-15T03:40:44;6.00;99.90
54642;DHT22;40536;53.194;5.728;2023-04-15T03:43:10;5.70;99.90
54642;DHT22;40536;53.194;5.728;2023-04-15T03:45:36;5.20;99.90
54642;DHT22;40536;53.194;5.728;2023-04-15T03:48:02;5.10;99.90
54642;DHT22;40536;53.194;5.728;2023-04-15T03:50:28;5.10;99.90
54642;DHT22;40536;53.194;5.728;2023-04-15T03:52:53;5.00;99.90
54642;DHT22;40536;53.194;5.728;2023-04-15T03:55:19;5.80;99.90
54642;DHT22;40536;53.194;5.728;2023-04-15T03:57:45;5.70;99.90
54642;DHT22;40536;53.194;5.728;2023-04-15T04:00:10;6.10;99.90
54642;DHT22;40536;53.194;5.728;2023-04-15T04:02:36;4.80;99.90
54642;DHT22;40536;53.194;5.728;2023-04-15T04:05:02;4.80;99.90
54642;DHT22;40536;53.194;5.728;2023-04-15T04:07:28;4.80;99.90
54642;DHT22;40536;53.194;5.728;2023-04-15T04:09:57;5.90;99.90
54642;DHT22;40536;53.194;5.728;2023-04-15T04:12:23;5.40;99.90
54642;DHT22;40536;53.194;5.728;2023-04-15T04:14:48;5.80;99.90
54642;DHT22;40536;53.194;5.728;2023-04-15T04:17:14;6.10;99.90
54642;DHT22;40536;53.194;5.728;2023-04-15T04:19:40;4.70;99.90
54642;DHT22;40536;53.194;5.728;2023-04-15T04:22:06;5.20;99.90
54642;DHT22;40536;53.194;5.728;2023-04-15T04:24:31;4.70;99.90
54642;DHT22;40536;53.194;5.728;2023-04-15T04:26:57;4.90;99.90
54642;DHT22;40536;53.194;5.728;2023-04-15T04:29:23;5.40;99.90
54642;DHT22;40536;53.194;5.728;2023-04-15T04:31:48;5.80;99.90
54642;DHT22;40536;53.194;5.728;2023-04-15T04:34:15;4.60;99.90
54642;DHT22;40536;53.194;5.728;2023-04-15T04:36:40;5.70;99.90
54642;DHT22;40536;53.194;5.728;2023-04-15T04:39:06;4.90;99.90
54642;DHT22;40536;53.194;5.728;2023-04-15T04:41:32;4.60;99.90
54642;DHT22;40536;53.194;5.728;2023-04-15T04:43:58;5.00;99.90
54642;DHT22;40536;53.194;5.728;2023-04-15T04:46:24;4.70;99.90
54642;DHT22;40536;53.194;5.728;2023-04-15T04:48:49;4.70;99.90
54642;DHT22;40536;53.194;5.728;2023-04-15T04:51:15;4.70;99.90
54642;DHT22;40536;53.194;5.728;2023-04-15T04:53:41;4.60;99.90
54642;DHT22;40536;53.194;5.728;2023-04-15T04:56:07;5.00;99.90
54642;DHT22;40536;53.194;5.728;2023-04-15T04:58:33;5.30;99.90
54642;DHT22;40536;53.194;5.728;2023-04-15T05:00:59;4.50;99.90
54642;DHT22;40536;53.194;5.728;2023-04-15T05:03:25;5.90;99.90
54642;DHT22;40536;53.194;5.728;2023-04-15T05:05:51;5.40;99.90
54642;DHT22;40536;53.194;5.728;2023-04-15T05:08:17;5.60;99.90
54642;DHT22;40536;53.194;5.728;2023-04-15T05:10:43;5.60;99.90
54642;DHT22;40536;53.194;5.728;2023-04-15T05:13:08;5.20;99.90
54642;DHT22;40536;53.194;5.728;2023-04-15T05:15:34;4.60;99.90
54642;DHT22;40536;53.194;5.728;2023-04-15T05:18:01;4.60;99.90
54642;DHT22;40536;53.194;5.728;2023-04-15T05:20:27;5.30;99.90
54642;DHT22;40536;53.194;5.728;2023-04-15T05:22:53;5.30;99.90
54642;DHT22;40536;53.194;5.728;2023-04-15T05:25:18;6.20;99.90
54642;DHT22;40536;53.194;5.728;2023-04-15T05:27:44;5.70;99.90
54642;DHT22;40536;53.194;5.728;2023-04-15T05:30:10;6.20;99.90
54642;DHT22;40536;53.194;5.728;2023-04-15T05:32:36;5.10;99.90
54642;DHT22;40536;53.194;5.728;2023-04-15T05:35:02;5.20;99.90
54642;DHT22;40536;53.194;5.728;2023-04-15T05:37:27;5.20;99.90
54642;DHT22;40536;53.194;5.728;2023-04-15T05:39:53;6.00;99.90
54642;DHT22;40536;53.194;5.728;2023-04-15T05:42:19;5.60;99.90
54642;DHT22;40536;53.194;5.728;2023-04-15T05:44:44;6.30;99.90
54642;DHT22;40536;53.194;5.728;2023-04-15T05:47:10;6.40;99.90
54642;DHT22;40536;53.194;5.728;2023-04-15T05:49:36;5.80;99.90
54642;DHT22;40536;53.194;5.728;2023-04-15T05:52:02;6.30;99.90
54642;DHT22;40536;53.194;5.728;2023-04-15T05:54:27;6.60;99.90
54642;DHT22;40536;53.194;5.728;2023-04-15T05:56:53;6.10;99.90
54642;DHT22;40536;53.194;5.728;2023-04-15T05:59:19;6.20;99.90
54642;DHT22;40536;53.194;5.728;2023-04-15T06:01:45;6.40;99.90
54642;DHT22;40536;53.194;5.728;2023-04-15T06:04:10;6.40;99.90
54642;DHT22;40536;53.194;5.728;2023-04-15T06:06:36;7.60;99.90
54642;DHT22;40536;53.194;5.728;2023-04-15T06:09:03;7.20;99.90
54642;DHT22;40536;53.194;5.728;2023-04-15T06:11:29;7.20;99.90
54642;DHT22;40536;53.194;5.728;2023-04-15T06:13:54;7.60;99.90
54642;DHT22;40536;53.194;5.728;2023-04-15T06:16:21;8.00;99.90
54642;DHT22;40536;53.194;5.728;2023-04-15T06:18:47;7.80;99.90
54642;DHT22;40536;53.194;5.728;2023-04-15T06:21:14;8.00;99.90
54642;DHT22;40536;53.194;5.728;2023-04-15T06:23:40;8.60;99.90
54642;DHT22;40536;53.194;5.728;2023-04-15T06:26:06;8.70;99.90
54642;DHT22;40536;53.194;5.728;2023-04-15T06:28:32;9.20;99.90
54642;DHT22;40536;53.194;5.728;2023-04-15T06:30:57;9.40;99.90
54642;DHT22;40536;53.194;5.728;2023-04-15T06:33:23;9.70;99.90
54642;DHT22;40536;53.194;5.728;2023-04-15T06:35:49;10.00;99.90
54642;DHT22;40536;53.194;5.728;2023-04-15T06:38:15;10.30;99.90
54642;DHT22;40536;53.194;5.728;2023-04-15T06:40:41;10.40;99.90
54642;DHT22;40536;53.194;5.728;2023-04-15T06:43:07;10.40;99.90
54642;DHT22;40536;53.194;5.728;2023-04-15T06:45:33;10.40;99.90
54642;DHT22;40536;53.194;5.728;2023-04-15T06:47:59;10.40;99.90
54642;DHT22;40536;53.194;5.728;2023-04-15T06:50:25;10.40;99.90
54642;DHT22;40536;53.194;5.728;2023-04-15T06:52:53;10.20;99.90
54642;DHT22;40536;53.194;5.728;2023-04-15T06:55:18;10.10;99.90
54642;DHT22;40536;53.194;5.728;2023-04-15T06:57:44;9.90;99.90
54642;DHT22;40536;53.194;5.728;2023-04-15T07:00:10;9.80;99.90
54642;DHT22;40536;53.194;5.728;2023-04-15T07:02:36;9.80;99.90
54642;DHT22;40536;53.194;5.728;2023-04-15T07:05:05;9.70;99.90
54642;DHT22;40536;53.194;5.728;2023-04-15T07:07:34;9.70;99.90
54642;DHT22;40536;53.194;5.728;2023-04-15T07:10:00;9.60;99.90
54642;DHT22;40536;53.194;5.728;2023-04-15T07:12:30;9.60;99.90
54642;DHT22;40536;53.194;5.728;2023-04-15T07:14:56;9.60;99.90
54642;DHT22;40536;53.194;5.728;2023-04-15T07:17:22;9.60;99.90
54642;DHT22;40536;53.194;5.728;2023-04-15T07:19:47;9.60;99.90
54642;DHT22;40536;53.194;5.728;2023-04-15T07:22:13;9.70;99.90
54642;DHT22;40536;53.194;5.728;2023-04-15T07:24:39;9.80;99.90
54642;DHT22;40536;53.194;5.728;2023-04-15T07:27:04;10.00;99.90
54642;DHT22;40536;53.194;5.728;2023-04-15T07:29:30;10.10;99.90
54642;DHT22;40536;53.194;5.728;2023-04-15T07:31:56;10.20;99.90
54642;DHT22;40536;53.194;5.728;2023-04-15T07:34:21;10.40;99.90
54642;DHT22;40536;53.194;5.728;2023-04-15T07:36:47;10.70;99.90
54642;DHT22;40536;53.194;5.728;2023-04-15T07:39:19;10.90;99.90
54642;DHT22;40536;53.194;5.728;2023-04-15T07:41:45;11.20;99.90
54642;DHT22;40536;53.194;5.728;2023-04-15T07:44:11;11.50;99.90
54642;DHT22;40536;53.194;5.728;2023-04-15T07:46:37;11.80;99.90
54642;DHT22;40536;53.194;5.728;2023-04-15T07:49:02;11.90;99.90
54642;DHT22;40536;53.194;5.728;2023-04-15T07:51:28;12.10;99.90
54642;DHT22;40536;53.194;5.728;2023-04-15T07:53:55;12.40;99.90
54642;DHT22;40536;53.194;5.728;2023-04-15T07:56:20;12.70;99.90
54642;DHT22;40536;53.194;5.728;2023-04-15T07:58:46;12.70;99.90
54642;DHT22;40536;53.194;5.728;2023-04-15T08:01:12;12.30;99.90
54642;DHT22;40536;53.194;5.728;2023-04-15T08:03:38;12.30;99.90
54642;DHT22;40536;53.194;5.728;2023-04-15T08:06:04;12.40;99.90
54642;DHT22;40536;53.194;5.728;2023-04-15T08:08:29;12.40;99.90
54642;DHT22;40536;53.194;5.728;2023-04-15T08:10:56;12.50;99.90
54642;DHT22;40536;53.194;5.728;2023-04-15T08:13:22;12.60;99.90
54642;DHT22;40536;53.194;5.728;2023-04-15T08:18:37;12.60;99.90
54642;DHT22;40536;53.194;5.728;2023-04-15T08:21:02;12.60;99.90
54642;DHT22;40536;53.194;5.728;2023-04-15T08:23:29;12.50;99.90
54642;DHT22;40536;53.194;5.728;2023-04-15T08:25:54;12.40;99.90
54642;DHT22;40536;53.194;5.728;2023-04-15T08:28:20;12.30;99.90
54642;DHT22;40536;53.194;5.728;2023-04-15T08:30:46;12.20;99.90
54642;DHT22;40536;53.194;5.728;2023-04-15T08:33:11;12.00;99.90
54642;DHT22;40536;53.194;5.728;2023-04-15T08:35:37;12.00;99.90
54642;DHT22;40536;53.194;5.728;2023-04-15T08:38:03;11.90;99.90
54642;DHT22;40536;53.194;5.728;2023-04-15T08:40:39;11.90;99.90
54642;DHT22;40536;53.194;5.728;2023-04-15T08:43:11;12.00;99.90
54642;DHT22;40536;53.194;5.728;2023-04-15T08:45:40;12.00;99.90
54642;DHT22;40536;53.194;5.728;2023-04-15T08:48:09;11.90;99.90
54642;DHT22;40536;53.194;5.728;2023-04-15T08:50:39;11.70;99.90
54642;DHT22;40536;53.194;5.728;2023-04-15T08:53:05;11.70;99.90
54642;DHT22;40536;53.194;5.728;2023-04-15T08:55:32;11.70;99.90
54642;DHT22;40536;53.194;5.728;2023-04-15T08:58:01;11.70;99.90
54642;DHT22;40536;53.194;5.728;2023-04-15T09:00:31;11.40;99.90
54642;DHT22;40536;53.194;5.728;2023-04-15T09:03:05;11.00;99.90
54642;DHT22;40536;53.194;5.728;2023-04-15T09:05:35;10.90;99.90
54642;DHT22;40536;53.194;5.728;2023-04-15T09:08:01;11.00;99.90
54642;DHT22;40536;53.194;5.728;2023-04-15T09:10:27;11.20;99.90
54642;DHT22;40536;53.194;5.728;2023-04-15T09:12:53;11.40;99.90
54642;DHT22;40536;53.194;5.728;2023-04-15T09:15:19;11.50;99.90
54642;DHT22;40536;53.194;5.728;2023-04-15T09:17:45;11.40;99.90
54642;DHT22;40536;53.194;5.728;2023-04-15T09:20:13;11.40;99.90
54642;DHT22;40536;53.194;5.728;2023-04-15T09:22:40;11.40;99.90
54642;DHT22;40536;53.194;5.728;2023-04-15T09:25:29;11.30;99.90
54642;DHT22;40536;53.194;5.728;2023-04-15T09:28:00;11.20;99.90
54642;DHT22;40536;53.194;5.728;2023-04-15T09:30:29;11.20;99.90
54642;DHT22;40536;53.194;5.728;2023-04-15T09:32:59;11.20;99.90
54642;DHT22;40536;53.194;5.728;2023-04-15T09:35:26;11.20;99.90
54642;DHT22;40536;53.194;5.728;2023-04-15T09:38:05;11.60;99.90
54642;DHT22;40536;53.194;5.728;2023-04-15T09:40:41;12.00;99.90
54642;DHT22;40536;53.194;5.728;2023-04-15T09:43:08;12.60;99.90
54642;DHT22;40536;53.194;5.728;2023-04-15T09:45:35;12.90;99.90
54642;DHT22;40536;53.194;5.728;2023-04-15T09:50:48;12.60;99.90
54642;DHT22;40536;53.194;5.728;2023-04-15T09:53:18;12.40;99.90
54642;DHT22;40536;53.194;5.728;2023-04-15T09:55:51;12.30;99.90
54642;DHT22;40536;53.194;5.728;2023-04-15T09:58:18;12.20;99.90
54642;DHT22;40536;53.194;5.728;2023-04-15T10:00:46;12.20;99.90
54642;DHT22;40536;53.194;5.728;2023-04-15T10:03:15;12.20;99.90
54642;DHT22;40536;53.194;5.728;2023-04-15T10:05:43;12.60;99.90
54642;DHT22;40536;53.194;5.728;2023-04-15T10:08:10;13.50;99.90
54642;DHT22;40536;53.194;5.728;2023-04-15T10:10:36;14.20;99.90
54642;DHT22;40536;53.194;5.728;2023-04-15T10:13:03;14.50;99.90
54642;DHT22;40536;53.194;5.728;2023-04-15T10:15:30;14.70;99.90
54642;DHT22;40536;53.194;5.728;2023-04-15T10:17:57;15.00;99.90
54642;DHT22;40536;53.194;5.728;2023-04-15T10:20:25;15.50;99.90
54642;DHT22;40536;53.194;5.728;2023-04-15T10:22:52;15.50;99.90
54642;DHT22;40536;53.194;5.728;2023-04-15T10:25:18;15.10;99.90
54642;DHT22;40536;53.194;5.728;2023-04-15T10:27:45;15.10;99.90
54642;DHT22;40536;53.194;5.728;2023-04-15T10:30:13;14.60;99.90
54642;DHT22;40536;53.194;5.728;2023-04-15T10:32:39;14.00;99.90
54642;DHT22;40536;53.194;5.728;2023-04-15T10:35:06;13.40;99.90
54642;DHT22;40536;53.194;5.728;2023-04-15T10:37:37;12.80;99.90
54642;DHT22;40536;53.194;5.728;2023-04-15T10:40:31;12.40;99.90
54642;DHT22;40536;53.194;5.728;2023-04-15T10:43:01;12.30;99.90
54642;DHT22;40536;53.194;5.728;2023-04-15T10:45:36;12.20;99.90
54642;DHT22;40536;53.194;5.728;2023-04-15T10:48:06;12.30;99.90
54642;DHT22;40536;53.194;5.728;2023-04-15T10:50:33;12.50;99.90
54642;DHT22;40536;53.194;5.728;2023-04-15T10:53:02;12.20;99.90
54642;DHT22;40536;53.194;5.728;2023-04-15T10:55:34;11.90;99.90
54642;DHT22;40536;53.194;5.728;2023-04-15T10:58:01;11.80;99.90
54642;DHT22;40536;53.194;5.728;2023-04-15T11:00:31;11.70;99.90
54642;DHT22;40536;53.194;5.728;2023-04-15T11:03:08;11.70;99.90
54642;DHT22;40536;53.194;5.728;2023-04-15T11:08:06;11.80;99.90
54642;DHT22;40536;53.194;5.728;2023-04-15T11:13:03;11.80;99.90
54642;DHT22;40536;53.194;5.728;2023-04-15T11:17:57;11.40;99.90
54642;DHT22;40536;53.194;5.728;2023-04-15T11:20:23;11.20;99.90
54642;DHT22;40536;53.194;5.728;2023-04-15T11:22:50;11.20;99.90
54642;DHT22;40536;53.194;5.728;2023-04-15T11:25:29;11.20;99.90
54642;DHT22;40536;53.194;5.728;2023-04-15T11:27:55;11.20;99.90
54642;DHT22;40536;53.194;5.728;2023-04-15T11:30:25;11.30;99.90
54642;DHT22;40536;53.194;5.728;2023-04-15T11:32:53;11.30;99.90
54642;DHT22;40536;53.194;5.728;2023-04-15T11:35:19;11.40;99.90
54642;DHT22;40536;53.194;5.728;2023-04-15T11:37:46;11.50;99.90
54642;DHT22;40536;53.194;5.728;2023-04-15T11:40:12;11.40;99.90
54642;DHT22;40536;53.194;5.728;2023-04-15T11:42:42;11.30;99.90
54642;DHT22;40536;53.194;5.728;2023-04-15T11:47:40;10.80;99.90
54642;DHT22;40536;53.194;5.728;2023-04-15T11:50:20;10.70;99.90
54642;DHT22;40536;53.194;5.728;2023-04-15T11:55:19;10.60;99.90
54642;DHT22;40536;53.194;5.728;2023-04-15T11:57:45;10.70;99.90
54642;DHT22;40536;53.194;5.728;2023-04-15T12:00:11;10.70;99.90
54642;DHT22;40536;53.194;5.728;2023-04-15T12:02:37;10.80;99.90
54642;DHT22;40536;53.194;5.728;2023-04-15T12:05:07;11.00;99.90
54642;DHT22;40536;53.194;5.728;2023-04-15T12:07:57;11.00;99.90
54642;DHT22;40536;53.194;5.728;2023-04-15T12:10:26;10.90;99.90
54642;DHT22;40536;53.194;5.728;2023-04-15T12:12:52;10.70;99.90
54642;DHT22;40536;53.194;5.728;2023-04-15T12:15:21;10.50;99.90
54642;DHT22;40536;53.194;5.728;2023-04-15T12:17:48;10.30;99.90
54642;DHT22;40536;53.194;5.728;2023-04-15T12:20:21;10.30;99.90
54642;DHT22;40536;53.194;5.728;2023-04-15T12:22:49;10.40;99.90
54642;DHT22;40536;53.194;5.728;2023-04-15T12:25:14;10.50;99.90
54642;DHT22;40536;53.194;5.728;2023-04-15T12:27:40;10.40;99.90
54642;DHT22;40536;53.194;5.728;2023-04-15T12:30:07;10.40;99.90
54642;DHT22;40536;53.194;5.728;2023-04-15T12:32:36;10.50;99.90
54642;DHT22;40536;53.194;5.728;2023-04-15T12:35:02;10.60;99.90
54642;DHT22;40536;53.194;5.728;2023-04-15T12:37:27;10.50;99.90
54642;DHT22;40536;53.194;5.728;2023-04-15T12:39:53;10.30;99.90
54642;DHT22;40536;53.194;5.728;2023-04-15T12:42:19;10.30;99.90
54642;DHT22;40536;53.194;5.728;2023-04-15T12:44:45;10.30;99.90
54642;DHT22;40536;53.194;5.728;2023-04-15T12:47:11;10.20;99.90
54642;DHT22;40536;53.194;5.728;2023-04-15T12:49:37;10.10;99.90
54642;DHT22;40536;53.194;5.728;2023-04-15T12:52:04;10.00;99.90
54642;DHT22;40536;53.194;5.728;2023-04-15T12:54:30;10.10;99.90
54642;DHT22;40536;53.194;5.728;2023-04-15T12:56:57;10.10;99.90
54642;DHT22;40536;53.194;5.728;2023-04-15T12:59:24;10.10;99.90
54642;DHT22;40536;53.194;5.728;2023-04-15T13:01:50;10.20;99.90
54642;DHT22;40536;53.194;5.728;2023-04-15T13:04:17;10.20;99.90
54642;DHT22;40536;53.194;5.728;2023-04-15T13:06:43;10.10;99.90
54642;DHT22;40536;53.194;5.728;2023-04-15T13:09:16;10.10;99.90
54642;DHT22;40536;53.194;5.728;2023-04-15T13:11:42;10.00;99.90
54642;DHT22;40536;53.194;5.728;2023-04-15T13:14:08;10.00;99.90
54642;DHT22;40536;53.194;5.728;2023-04-15T13:16:35;10.10;99.90
54642;DHT22;40536;53.194;5.728;2023-04-15T13:19:02;10.00;99.90
54642;DHT22;40536;53.194;5.728;2023-04-15T13:21:28;9.90;99.90
54642;DHT22;40536;53.194;5.728;2023-04-15T13:23:54;10.00;99.90
54642;DHT22;40536;53.194;5.728;2023-04-15T13:26:20;9.90;99.90
54642;DHT22;40536;53.194;5.728;2023-04-15T13:28:46;9.80;99.90
54642;DHT22;40536;53.194;5.728;2023-04-15T13:31:12;9.80;99.90
54642;DHT22;40536;53.194;5.728;2023-04-15T13:33:37;9.80;99.90
54642;DHT22;40536;53.194;5.728;2023-04-15T13:36:03;9.80;99.90
54642;DHT22;40536;53.194;5.728;2023-04-15T13:38:29;9.80;99.90
54642;DHT22;40536;53.194;5.728;2023-04-15T13:40:55;9.70;99.90
54642;DHT22;40536;53.194;5.728;2023-04-15T13:43:20;9.60;99.90
54642;DHT22;40536;53.194;5.728;2023-04-15T13:45:46;9.70;99.90
54642;DHT22;40536;53.194;5.728;2023-04-15T13:48:12;9.70;99.90
54642;DHT22;40536;53.194;5.728;2023-04-15T13:50:40;9.60;99.90
54642;DHT22;40536;53.194;5.728;2023-04-15T13:53:12;9.60;99.90
54642;DHT22;40536;53.194;5.728;2023-04-15T13:55:38;9.70;99.90
54642;DHT22;40536;53.194;5.728;2023-04-15T13:58:07;9.80;99.90
54642;DHT22;40536;53.194;5.728;2023-04-15T14:00:32;9.70;99.90
54642;DHT22;40536;53.194;5.728;2023-04-15T14:02:58;9.70;99.90
54642;DHT22;40536;53.194;5.728;2023-04-15T14:05:31;9.70;99.90
54642;DHT22;40536;53.194;5.728;2023-04-15T14:07:58;9.70;99.90
54642;DHT22;40536;53.194;5.728;2023-04-15T14:10:24;9.70;99.90
54642;DHT22;40536;53.194;5.728;2023-04-15T14:12:49;9.50;99.90
54642;DHT22;40536;53.194;5.728;2023-04-15T14:15:15;9.50;99.90
54642;DHT22;40536;53.194;5.728;2023-04-15T14:17:41;9.50;99.90
54642;DHT22;40536;53.194;5.728;2023-04-15T14:20:07;9.50;99.90
54642;DHT22;40536;53.194;5.728;2023-04-15T14:22:34;9.60;99.90
54642;DHT22;40536;53.194;5.728;2023-04-15T14:24:59;9.60;99.90
54642;DHT22;40536;53.194;5.728;2023-04-15T14:27:26;9.70;99.90
54642;DHT22;40536;53.194;5.728;2023-04-15T14:29:51;9.70;99.90
54642;DHT22;40536;53.194;5.728;2023-04-15T14:32:18;9.70;99.90
54642;DHT22;40536;53.194;5.728;2023-04-15T14:34:44;9.70;99.90
54642;DHT22;40536;53.194;5.728;2023-04-15T14:37:09;9.70;99.90
54642;DHT22;40536;53.194;5.728;2023-04-15T14:39:35;9.80;99.90
54642;DHT22;40536;53.194;5.728;2023-04-15T14:42:01;9.90;99.90
54642;DHT22;40536;53.194;5.728;2023-04-15T14:44:26;10.00;99.90
54642;DHT22;40536;53.194;5.728;2023-04-15T14:46:52;10.10;99.90
54642;DHT22;40536;53.194;5.728;2023-04-15T14:49:19;10.20;99.90
54642;DHT22;40536;53.194;5.728;2023-04-15T14:51:44;10.20;99.90
54642;DHT22;40536;53.194;5.728;2023-04-15T14:54:10;10.10;99.90
54642;DHT22;40536;53.194;5.728;2023-04-15T14:56:36;10.00;99.90
54642;DHT22;40536;53.194;5.728;2023-04-15T14:59:02;10.10;99.90
54642;DHT22;40536;53.194;5.728;2023-04-15T15:01:27;10.00;99.90
54642;DHT22;40536;53.194;5.728;2023-04-15T15:03:54;10.00;99.90
54642;DHT22;40536;53.194;5.728;2023-04-15T15:06:20;10.00;99.90
54642;DHT22;40536;53.194;5.728;2023-04-15T15:08:48;10.10;99.90
54642;DHT22;40536;53.194;5.728;2023-04-15T15:11:14;10.10;99.90
54642;DHT22;40536;53.194;5.728;2023-04-15T15:13:40;10.00;99.90
54642;DHT22;40536;53.194;5.728;2023-04-15T15:16:06;10.00;99.90
54642;DHT22;40536;53.194;5.728;2023-04-15T15:18:32;10.00;99.90
54642;DHT22;40536;53.194;5.728;2023-04-15T15:20:57;10.00;99.90
54642;DHT22;40536;53.194;5.728;2023-04-15T15:23:23;10.10;99.90
54642;DHT22;40536;53.194;5.728;2023-04-15T15:25:49;10.10;99.90
54642;DHT22;40536;53.194;5.728;2023-04-15T15:28:14;10.10;99.90
54642;DHT22;40536;53.194;5.728;2023-04-15T15:30:40;10.00;99.90
54642;DHT22;40536;53.194;5.728;2023-04-15T15:33:06;9.90;99.90
54642;DHT22;40536;53.194;5.728;2023-04-15T15:35:31;9.80;99.90
54642;DHT22;40536;53.194;5.728;2023-04-15T15:37:58;9.70;99.90
54642;DHT22;40536;53.194;5.728;2023-04-15T15:40:25;9.70;99.90
54642;DHT22;40536;53.194;5.728;2023-04-15T15:42:51;9.60;99.90
54642;DHT22;40536;53.194;5.728;2023-04-15T15:45:17;9.60;99.90
54642;DHT22;40536;53.194;5.728;2023-04-15T15:47:43;9.50;99.90
54642;DHT22;40536;53.194;5.728;2023-04-15T15:50:08;9.50;99.90
54642;DHT22;40536;53.194;5.728;2023-04-15T15:52:34;9.40;99.90
54642;DHT22;40536;53.194;5.728;2023-04-15T15:54:59;9.40;99.90